sensor_id;sensor_type;location;lat;lon;timestamp;temperature;humidity
25468;DHT22;13384;24.794;110.498;2022-12-10T00:02:08;13.20;97.90
25468;DHT22;13384;24.794;110.498;2022-12-10T00:04:39;13.20;97.90
25468;DHT22;13384;24.794;110.498;2022-12-10T00:07:18;13.20;97.90
25468;DHT22;13384;24.794;110.498;2022-12-10T00:10:04;13.20;97.90
25468;DHT22;13384;24.794;110.498;2022-12-10T00:12:38;13.20;98.00
25468;DHT22;13384;24.794;110.498;2022-12-10T00:15:21;13.20;98.00
25468;DHT22;13384;24.794;110.498;2022-12-10T00:18:05;13.20;98.00
25468;DHT22;13384;24.794;110.498;2022-12-10T00:20:48;13.20;98.00
25468;DHT22;13384;24.794;110.498;2022-12-10T00:23:20;13.20;98.00
25468;DHT22;13384;24.794;110.498;2022-12-10T00:25:53;13.20;98.00
25468;DHT22;13384;24.794;110.498;2022-12-10T00:28:24;13.20;98.00
25468;DHT22;13384;24.794;110.498;2022-12-10T00:31:18;13.20;98.00
25468;DHT22;13384;24.794;110.498;2022-12-10T00:33:50;13.20;98.00
25468;DHT22;13384;24.794;110.498;2022-12-10T00:36:42;13.20;97.90
25468;DHT22;13384;24.794;110.498;2022-12-10T00:39:26;13.20;98.00
25468;DHT22;13384;24.794;110.498;2022-12-10T00:42:17;13.20;97.90
25468;DHT22;13384;24.794;110.498;2022-12-10T00:44:46;13.20;97.90
25468;DHT22;13384;24.794;110.498;2022-12-10T00:47:14;13.20;98.00
25468;DHT22;13384;24.794;110.498;2022-12-10T00:49:45;13.20;97.90
25468;DHT22;13384;24.794;110.498;2022-12-10T00:52:19;13.20;97.90
25468;DHT22;13384;24.794;110.498;2022-12-10T00:54:48;13.20;98.00
25468;DHT22;13384;24.794;110.498;2022-12-10T00:57:34;13.20;97.90
25468;DHT22;13384;24.794;110.498;2022-12-10T01:00:17;13.30;97.90
25468;DHT22;13384;24.794;110.498;2022-12-10T01:03:01;13.20;97.90
25468;DHT22;13384;24.794;110.498;2022-12-10T01:05:45;13.30;97.90
25468;DHT22;13384;24.794;110.498;2022-12-10T01:08:29;13.30;97.80
25468;DHT22;13384;24.794;110.498;2022-12-10T01:12:22;13.30;97.80
25468;DHT22;13384;24.794;110.498;2022-12-10T01:15:05;13.30;97.80
25468;DHT22;13384;24.794;110.498;2022-12-10T01:17:54;13.30;97.80
25468;DHT22;13384;24.794;110.498;2022-12-10T01:20:25;13.30;97.80
25468;DHT22;13384;24.794;110.498;2022-12-10T01:23:10;13.30;97.70
25468;DHT22;13384;24.794;110.498;2022-12-10T01:25:53;13.30;97.70
25468;DHT22;13384;24.794;110.498;2022-12-10T01:28:24;13.30;97.70
25468;DHT22;13384;24.794;110.498;2022-12-10T01:31:17;13.30;97.60
25468;DHT22;13384;24.794;110.498;2022-12-10T01:33:46;13.40;97.60
25468;DHT22;13384;24.794;110.498;2022-12-10T01:36:28;13.30;97.50
25468;DHT22;13384;24.794;110.498;2022-12-10T01:38:57;13.30;97.40
25468;DHT22;13384;24.794;110.498;2022-12-10T01:41:29;13.40;97.50
25468;DHT22;13384;24.794;110.498;2022-12-10T01:47:02;13.30;96.70
25468;DHT22;13384;24.794;110.498;2022-12-10T01:49:36;13.30;96.60
25468;DHT22;13384;24.794;110.498;2022-12-10T01:52:13;13.30;97.00
25468;DHT22;13384;24.794;110.498;2022-12-10T01:54:49;13.30;96.90
25468;DHT22;13384;24.794;110.498;2022-12-10T01:57:35;13.30;96.80
25468;DHT22;13384;24.794;110.498;2022-12-10T02:00:06;13.40;96.70
25468;DHT22;13384;24.794;110.498;2022-12-10T02:16:15;13.40;96.80
25468;DHT22;13384;24.794;110.498;2022-12-10T02:18:48;13.40;96.50
25468;DHT22;13384;24.794;110.498;2022-12-10T02:21:38;13.40;96.70
25468;DHT22;13384;24.794;110.498;2022-12-10T02:24:20;13.40;96.30
25468;DHT22;13384;24.794;110.498;2022-12-10T02:27:18;13.40;96.00
25468;DHT22;13384;24.794;110.498;2022-12-10T02:29:56;13.40;95.90
25468;DHT22;13384;24.794;110.498;2022-12-10T02:32:36;13.50;96.30
25468;DHT22;13384;24.794;110.498;2022-12-10T02:35:26;13.50;96.40
25468;DHT22;13384;24.794;110.498;2022-12-10T02:38:29;13.50;96.40
25468;DHT22;13384;24.794;110.498;2022-12-10T02:41:06;13.50;96.00
25468;DHT22;13384;24.794;110.498;2022-12-10T02:43:39;13.50;96.30
25468;DHT22;13384;24.794;110.498;2022-12-10T02:46:24;13.50;96.30
25468;DHT22;13384;24.794;110.498;2022-12-10T02:49:04;13.50;96.30
25468;DHT22;13384;24.794;110.498;2022-12-10T02:51:40;13.50;96.30
25468;DHT22;13384;24.794;110.498;2022-12-10T02:54:43;13.50;96.50
25468;DHT22;13384;24.794;110.498;2022-12-10T02:58:13;13.50;96.50
25468;DHT22;13384;24.794;110.498;2022-12-10T03:00:48;13.50;96.30
25468;DHT22;13384;24.794;110.498;2022-12-10T03:03:44;13.60;96.80
25468;DHT22;13384;24.794;110.498;2022-12-10T03:06:29;13.60;96.40
25468;DHT22;13384;24.794;110.498;2022-12-10T03:09:32;13.60;96.40
25468;DHT22;13384;24.794;110.498;2022-12-10T03:12:50;13.60;96.50
25468;DHT22;13384;24.794;110.498;2022-12-10T03:15:38;13.60;96.50
25468;DHT22;13384;24.794;110.498;2022-12-10T03:18:27;13.60;96.50
25468;DHT22;13384;24.794;110.498;2022-12-10T03:21:13;13.60;96.40
25468;DHT22;13384;24.794;110.498;2022-12-10T03:24:09;13.60;96.40
25468;DHT22;13384;24.794;110.498;2022-12-10T03:26:53;13.70;96.50
25468;DHT22;13384;24.794;110.498;2022-12-10T03:29:49;13.60;96.40
25468;DHT22;13384;24.794;110.498;2022-12-10T03:32:28;13.70;96.40
25468;DHT22;13384;24.794;110.498;2022-12-10T03:35:02;13.70;96.40
25468;DHT22;13384;24.794;110.498;2022-12-10T03:38:01;13.70;96.40
25468;DHT22;13384;24.794;110.498;2022-12-10T03:40:56;13.70;96.40
25468;DHT22;13384;24.794;110.498;2022-12-10T03:43:54;13.70;96.40
25468;DHT22;13384;24.794;110.498;2022-12-10T03:46:38;13.70;96.30
25468;DHT22;13384;24.794;110.498;2022-12-10T03:49:06;13.70;96.30
25468;DHT22;13384;24.794;110.498;2022-12-10T03:51:55;13.70;96.30
25468;DHT22;13384;24.794;110.498;2022-12-10T03:54:39;13.70;96.30
25468;DHT22;13384;24.794;110.498;2022-12-10T03:57:19;13.70;96.30
25468;DHT22;13384;24.794;110.498;2022-12-10T04:00:04;13.70;96.30
25468;DHT22;13384;24.794;110.498;2022-12-10T04:02:47;13.80;96.30
25468;DHT22;13384;24.794;110.498;2022-12-10T04:05:31;13.70;96.30
25468;DHT22;13384;24.794;110.498;2022-12-10T04:08:14;13.70;96.30
25468;DHT22;13384;24.794;110.498;2022-12-10T04:11:16;13.80;96.30
25468;DHT22;13384;24.794;110.498;2022-12-10T04:14:00;13.80;96.30
25468;DHT22;13384;24.794;110.498;2022-12-10T04:16:49;13.70;96.30
25468;DHT22;13384;24.794;110.498;2022-12-10T04:19:38;13.80;96.30
25468;DHT22;13384;24.794;110.498;2022-12-10T04:22:09;13.70;96.40
25468;DHT22;13384;24.794;110.498;2022-12-10T04:25:14;13.80;96.40
25468;DHT22;13384;24.794;110.498;2022-12-10T04:28:02;13.80;96.40
25468;DHT22;13384;24.794;110.498;2022-12-10T04:31:11;13.80;96.50
25468;DHT22;13384;24.794;110.498;2022-12-10T04:33:54;13.80;96.40
25468;DHT22;13384;24.794;110.498;2022-12-10T04:36:40;13.80;96.40
25468;DHT22;13384;24.794;110.498;2022-12-10T04:39:24;13.80;96.30
25468;DHT22;13384;24.794;110.498;2022-12-10T04:42:08;13.80;96.40
25468;DHT22;13384;24.794;110.498;2022-12-10T04:44:51;13.80;96.40
25468;DHT22;13384;24.794;110.498;2022-12-10T04:47:34;13.80;96.40
25468;DHT22;13384;24.794;110.498;2022-12-10T04:50:18;13.80;96.40
25468;DHT22;13384;24.794;110.498;2022-12-10T04:52:49;13.80;96.40
25468;DHT22;13384;24.794;110.498;2022-12-10T04:55:22;13.80;96.40
25468;DHT22;13384;24.794;110.498;2022-12-10T04:58:05;13.80;96.40
25468;DHT22;13384;24.794;110.498;2022-12-10T05:00:48;13.80;96.30
25468;DHT22;13384;24.794;110.498;2022-12-10T05:03:32;13.80;96.30
25468;DHT22;13384;24.794;110.498;2022-12-10T05:06:39;13.80;96.30
25468;DHT22;13384;24.794;110.498;2022-12-10T05:09:23;13.80;96.20
25468;DHT22;13384;24.794;110.498;2022-12-10T05:12:06;13.80;96.20
25468;DHT22;13384;24.794;110.498;2022-12-10T05:14:37;13.80;96.20
25468;DHT22;13384;24.794;110.498;2022-12-10T05:17:12;13.80;96.20
25468;DHT22;13384;24.794;110.498;2022-12-10T05:19:43;13.80;96.20
25468;DHT22;13384;24.794;110.498;2022-12-10T05:22:36;13.80;96.20
25468;DHT22;13384;24.794;110.498;2022-12-10T05:25:25;13.80;96.20
25468;DHT22;13384;24.794;110.498;2022-12-10T05:28:11;13.80;96.30
25468;DHT22;13384;24.794;110.498;2022-12-10T05:30:57;13.80;96.30
25468;DHT22;13384;24.794;110.498;2022-12-10T05:33:41;13.80;96.20
25468;DHT22;13384;24.794;110.498;2022-12-10T05:36:13;13.80;96.20
25468;DHT22;13384;24.794;110.498;2022-12-10T05:38:45;13.80;96.20
25468;DHT22;13384;24.794;110.498;2022-12-10T05:41:35;13.80;96.20
25468;DHT22;13384;24.794;110.498;2022-12-10T05:44:20;13.80;96.20
25468;DHT22;13384;24.794;110.498;2022-12-10T05:47:09;13.80;96.20
25468;DHT22;13384;24.794;110.498;2022-12-10T05:49:52;13.80;96.10
25468;DHT22;13384;24.794;110.498;2022-12-10T05:53:42;13.80;96.10
25468;DHT22;13384;24.794;110.498;2022-12-10T05:56:27;13.80;96.10
25468;DHT22;13384;24.794;110.498;2022-12-10T05:59:10;13.80;96.10
25468;DHT22;13384;24.794;110.498;2022-12-10T06:01:53;13.80;96.00
25468;DHT22;13384;24.794;110.498;2022-12-10T06:04:22;13.80;95.80
25468;DHT22;13384;24.794;110.498;2022-12-10T06:06:50;13.80;95.90
25468;DHT22;13384;24.794;110.498;2022-12-10T06:09:18;13.90;95.90
25468;DHT22;13384;24.794;110.498;2022-12-10T06:11:55;13.90;95.80
25468;DHT22;13384;24.794;110.498;2022-12-10T06:14:24;13.90;95.90
25468;DHT22;13384;24.794;110.498;2022-12-10T06:16:52;13.80;95.90
25468;DHT22;13384;24.794;110.498;2022-12-10T06:19:20;13.80;95.80
25468;DHT22;13384;24.794;110.498;2022-12-10T06:21:48;13.90;95.80
25468;DHT22;13384;24.794;110.498;2022-12-10T06:24:38;13.80;95.70
25468;DHT22;13384;24.794;110.498;2022-12-10T06:27:21;13.80;95.50
25468;DHT22;13384;24.794;110.498;2022-12-10T06:30:05;13.90;95.70
25468;DHT22;13384;24.794;110.498;2022-12-10T06:32:56;13.80;95.70
25468;DHT22;13384;24.794;110.498;2022-12-10T06:35:30;13.80;95.70
25468;DHT22;13384;24.794;110.498;2022-12-10T06:38:20;13.80;95.80
25468;DHT22;13384;24.794;110.498;2022-12-10T06:41:08;13.80;95.80
25468;DHT22;13384;24.794;110.498;2022-12-10T06:43:41;13.90;95.90
25468;DHT22;13384;24.794;110.498;2022-12-10T06:46:15;13.80;95.80
25468;DHT22;13384;24.794;110.498;2022-12-10T06:48:58;13.90;95.80
25468;DHT22;13384;24.794;110.498;2022-12-10T06:51:49;13.90;95.90
25468;DHT22;13384;24.794;110.498;2022-12-10T06:54:20;13.90;95.80
25468;DHT22;13384;24.794;110.498;2022-12-10T06:56:50;13.90;96.10
25468;DHT22;13384;24.794;110.498;2022-12-10T06:59:33;13.90;95.80
25468;DHT22;13384;24.794;110.498;2022-12-10T07:02:50;13.90;95.80
25468;DHT22;13384;24.794;110.498;2022-12-10T07:05:19;13.90;95.70
25468;DHT22;13384;24.794;110.498;2022-12-10T07:07:47;13.90;95.80
25468;DHT22;13384;24.794;110.498;2022-12-10T07:10:15;13.90;95.80
25468;DHT22;13384;24.794;110.498;2022-12-10T07:12:48;13.90;95.80
25468;DHT22;13384;24.794;110.498;2022-12-10T07:15:16;13.90;95.90
25468;DHT22;13384;24.794;110.498;2022-12-10T07:17:44;13.90;95.90
25468;DHT22;13384;24.794;110.498;2022-12-10T07:20:30;13.90;95.90
25468;DHT22;13384;24.794;110.498;2022-12-10T07:23:00;13.90;95.90
25468;DHT22;13384;24.794;110.498;2022-12-10T07:25:44;13.90;95.90
25468;DHT22;13384;24.794;110.498;2022-12-10T07:28:16;13.90;95.90
25468;DHT22;13384;24.794;110.498;2022-12-10T07:31:12;13.90;95.90
25468;DHT22;13384;24.794;110.498;2022-12-10T07:34:08;13.90;96.00
25468;DHT22;13384;24.794;110.498;2022-12-10T07:36:52;13.90;96.00
25468;DHT22;13384;24.794;110.498;2022-12-10T07:39:24;13.90;95.90
25468;DHT22;13384;24.794;110.498;2022-12-10T07:41:55;13.90;95.90
25468;DHT22;13384;24.794;110.498;2022-12-10T07:44:28;13.90;95.90
25468;DHT22;13384;24.794;110.498;2022-12-10T07:47:00;13.90;96.00
25468;DHT22;13384;24.794;110.498;2022-12-10T07:49:31;13.90;96.00
25468;DHT22;13384;24.794;110.498;2022-12-10T07:52:17;13.90;96.00
25468;DHT22;13384;24.794;110.498;2022-12-10T07:55:03;13.90;96.00
25468;DHT22;13384;24.794;110.498;2022-12-10T07:57:33;13.90;96.10
25468;DHT22;13384;24.794;110.498;2022-12-10T08:00:22;13.90;96.10
25468;DHT22;13384;24.794;110.498;2022-12-10T08:03:15;13.90;96.10
25468;DHT22;13384;24.794;110.498;2022-12-10T08:05:46;13.90;96.10
25468;DHT22;13384;24.794;110.498;2022-12-10T08:08:17;13.90;96.10
25468;DHT22;13384;24.794;110.498;2022-12-10T08:11:02;13.90;96.10
25468;DHT22;13384;24.794;110.498;2022-12-10T08:13:55;13.90;96.20
25468;DHT22;13384;24.794;110.498;2022-12-10T08:16:41;13.90;96.10
25468;DHT22;13384;24.794;110.498;2022-12-10T08:19:30;13.90;96.10
25468;DHT22;13384;24.794;110.498;2022-12-10T08:22:16;13.90;96.20
25468;DHT22;13384;24.794;110.498;2022-12-10T08:24:59;13.90;96.20
25468;DHT22;13384;24.794;110.498;2022-12-10T08:27:31;13.90;96.20
25468;DHT22;13384;24.794;110.498;2022-12-10T08:30:14;13.90;96.20
25468;DHT22;13384;24.794;110.498;2022-12-10T08:32:57;13.90;96.20
25468;DHT22;13384;24.794;110.498;2022-12-10T08:35:41;13.90;96.20
25468;DHT22;13384;24.794;110.498;2022-12-10T08:38:25;13.90;96.30
25468;DHT22;13384;24.794;110.498;2022-12-10T08:41:20;13.90;96.30
25468;DHT22;13384;24.794;110.498;2022-12-10T08:44:04;13.90;96.30
25468;DHT22;13384;24.794;110.498;2022-12-10T08:46:51;13.90;96.30
25468;DHT22;13384;24.794;110.498;2022-12-10T08:49:22;13.90;96.30
25468;DHT22;13384;24.794;110.498;2022-12-10T08:51:53;13.90;96.30
25468;DHT22;13384;24.794;110.498;2022-12-10T08:54:36;13.90;96.30
25468;DHT22;13384;24.794;110.498;2022-12-10T08:57:06;13.90;96.40
25468;DHT22;13384;24.794;110.498;2022-12-10T08:59:49;13.90;96.40
25468;DHT22;13384;24.794;110.498;2022-12-10T09:02:33;13.90;96.40
25468;DHT22;13384;24.794;110.498;2022-12-10T09:05:27;13.90;96.40
25468;DHT22;13384;24.794;110.498;2022-12-10T09:07:58;13.90;96.40
25468;DHT22;13384;24.794;110.498;2022-12-10T09:10:42;13.90;96.40
25468;DHT22;13384;24.794;110.498;2022-12-10T09:13:25;13.90;96.40
25468;DHT22;13384;24.794;110.498;2022-12-10T09:16:11;13.90;96.40
25468;DHT22;13384;24.794;110.498;2022-12-10T09:18:54;13.90;96.50
25468;DHT22;13384;24.794;110.498;2022-12-10T09:21:38;13.90;96.80
25468;DHT22;13384;24.794;110.498;2022-12-10T09:24:21;13.90;96.50
25468;DHT22;13384;24.794;110.498;2022-12-10T09:27:05;13.90;96.50
25468;DHT22;13384;24.794;110.498;2022-12-10T09:29:33;13.90;96.50
25468;DHT22;13384;24.794;110.498;2022-12-10T09:32:16;13.90;96.50
25468;DHT22;13384;24.794;110.498;2022-12-10T09:34:51;13.90;96.50
25468;DHT22;13384;24.794;110.498;2022-12-10T09:37:34;13.90;96.50
25468;DHT22;13384;24.794;110.498;2022-12-10T09:40:07;13.90;96.60
25468;DHT22;13384;24.794;110.498;2022-12-10T09:45:29;13.90;96.70
25468;DHT22;13384;24.794;110.498;2022-12-10T09:51:35;13.90;96.70
25468;DHT22;13384;24.794;110.498;2022-12-10T09:57:22;13.90;96.70
25468;DHT22;13384;24.794;110.498;2022-12-10T10:00:38;13.90;96.70
25468;DHT22;13384;24.794;110.498;2022-12-10T10:03:22;13.90;96.80
25468;DHT22;13384;24.794;110.498;2022-12-10T10:06:06;13.90;96.80
25468;DHT22;13384;24.794;110.498;2022-12-10T10:08:57;13.90;96.80
25468;DHT22;13384;24.794;110.498;2022-12-10T10:11:31;13.90;96.80
25468;DHT22;13384;24.794;110.498;2022-12-10T10:14:27;13.90;96.80
25468;DHT22;13384;24.794;110.498;2022-12-10T10:17:02;13.90;96.80
25468;DHT22;13384;24.794;110.498;2022-12-10T10:19:34;13.90;96.80
25468;DHT22;13384;24.794;110.498;2022-12-10T10:23:45;13.90;96.80
25468;DHT22;13384;24.794;110.498;2022-12-10T10:26:35;13.90;97.00
25468;DHT22;13384;24.794;110.498;2022-12-10T10:29:20;13.90;97.10
25468;DHT22;13384;24.794;110.498;2022-12-10T10:33:14;13.90;97.10
25468;DHT22;13384;24.794;110.498;2022-12-10T10:35:25;13.90;97.20
25468;DHT22;13384;24.794;110.498;2022-12-10T10:38:23;13.80;97.20
25468;DHT22;13384;24.794;110.498;2022-12-10T10:41:14;13.80;97.30
25468;DHT22;13384;24.794;110.498;2022-12-10T10:44:00;13.80;97.30
25468;DHT22;13384;24.794;110.498;2022-12-10T10:46:52;13.90;97.20
25468;DHT22;13384;24.794;110.498;2022-12-10T10:49:44;13.80;97.10
25468;DHT22;13384;24.794;110.498;2022-12-10T10:52:18;13.90;97.20
25468;DHT22;13384;24.794;110.498;2022-12-10T10:54:53;13.90;97.30
25468;DHT22;13384;24.794;110.498;2022-12-10T10:57:43;13.80;97.30
25468;DHT22;13384;24.794;110.498;2022-12-10T11:00:26;13.80;97.20
25468;DHT22;13384;24.794;110.498;2022-12-10T11:03:14;13.80;97.30
25468;DHT22;13384;24.794;110.498;2022-12-10T11:06:00;13.80;97.40
25468;DHT22;13384;24.794;110.498;2022-12-10T11:08:45;13.80;97.40
25468;DHT22;13384;24.794;110.498;2022-12-10T11:11:34;13.80;97.40
25468;DHT22;13384;24.794;110.498;2022-12-10T11:14:31;13.80;97.40
25468;DHT22;13384;24.794;110.498;2022-12-10T11:19:59;13.80;97.40
25468;DHT22;13384;24.794;110.498;2022-12-10T11:22:56;13.80;97.40
25468;DHT22;13384;24.794;110.498;2022-12-10T11:26:02;13.70;97.20
25468;DHT22;13384;24.794;110.498;2022-12-10T11:28:49;13.70;97.30
25468;DHT22;13384;24.794;110.498;2022-12-10T11:37:32;13.80;97.20
25468;DHT22;13384;24.794;110.498;2022-12-10T11:46:31;13.70;97.20
25468;DHT22;13384;24.794;110.498;2022-12-10T11:55:44;13.70;97.20
25468;DHT22;13384;24.794;110.498;2022-12-10T11:58:41;13.70;97.20
25468;DHT22;13384;24.794;110.498;2022-12-10T12:10:19;13.70;97.40
25468;DHT22;13384;24.794;110.498;2022-12-10T12:12:59;13.70;97.30
25468;DHT22;13384;24.794;110.498;2022-12-10T12:15:32;13.70;97.20
25468;DHT22;13384;24.794;110.498;2022-12-10T12:18:33;13.70;97.20
25468;DHT22;13384;24.794;110.498;2022-12-10T12:21:15;13.70;97.30
25468;DHT22;13384;24.794;110.498;2022-12-10T12:27:00;13.70;97.30
25468;DHT22;13384;24.794;110.498;2022-12-10T12:32:21;13.70;97.30
25468;DHT22;13384;24.794;110.498;2022-12-10T12:35:17;13.70;97.30
25468;DHT22;13384;24.794;110.498;2022-12-10T12:38:06;13.70;97.30
25468;DHT22;13384;24.794;110.498;2022-12-10T12:40:59;13.70;97.30
25468;DHT22;13384;24.794;110.498;2022-12-10T12:46:43;13.70;97.40
25468;DHT22;13384;24.794;110.498;2022-12-10T12:49:36;13.60;97.30
25468;DHT22;13384;24.794;110.498;2022-12-10T12:52:48;13.60;97.30
25468;DHT22;13384;24.794;110.498;2022-12-10T12:55:56;13.60;97.40
25468;DHT22;13384;24.794;110.498;2022-12-10T13:04:58;13.60;97.40
25468;DHT22;13384;24.794;110.498;2022-12-10T13:07:43;13.60;97.40
25468;DHT22;13384;24.794;110.498;2022-12-10T13:10:28;13.60;97.40
25468;DHT22;13384;24.794;110.498;2022-12-10T13:13:36;13.60;97.40
25468;DHT22;13384;24.794;110.498;2022-12-10T13:19:26;13.60;97.40
25468;DHT22;13384;24.794;110.498;2022-12-10T13:27:41;13.50;97.40
25468;DHT22;13384;24.794;110.498;2022-12-10T13:32:45;13.50;97.50
25468;DHT22;13384;24.794;110.498;2022-12-10T13:35:16;13.50;97.50
25468;DHT22;13384;24.794;110.498;2022-12-10T13:40:41;13.60;97.50
25468;DHT22;13384;24.794;110.498;2022-12-10T13:43:57;13.50;97.40
25468;DHT22;13384;24.794;110.498;2022-12-10T13:49:59;13.50;97.40
25468;DHT22;13384;24.794;110.498;2022-12-10T13:53:29;13.50;97.50
25468;DHT22;13384;24.794;110.498;2022-12-10T13:55:55;13.50;97.50
25468;DHT22;13384;24.794;110.498;2022-12-10T14:04:45;13.50;97.40
25468;DHT22;13384;24.794;110.498;2022-12-10T14:07:19;13.50;97.50
25468;DHT22;13384;24.794;110.498;2022-12-10T14:10:18;13.50;97.50
25468;DHT22;13384;24.794;110.498;2022-12-10T14:13:05;13.50;97.50
25468;DHT22;13384;24.794;110.498;2022-12-10T14:15:55;13.50;97.50
25468;DHT22;13384;24.794;110.498;2022-12-10T14:18:42;13.50;97.50
25468;DHT22;13384;24.794;110.498;2022-12-10T14:21:26;13.50;97.50
25468;DHT22;13384;24.794;110.498;2022-12-10T14:25:20;13.50;97.50
25468;DHT22;13384;24.794;110.498;2022-12-10T14:27:52;13.50;97.60
25468;DHT22;13384;24.794;110.498;2022-12-10T14:30:24;13.50;97.50
25468;DHT22;13384;24.794;110.498;2022-12-10T14:32:58;13.50;97.50
25468;DHT22;13384;24.794;110.498;2022-12-10T14:35:49;13.50;97.50
25468;DHT22;13384;24.794;110.498;2022-12-10T14:38:30;13.50;97.60
25468;DHT22;13384;24.794;110.498;2022-12-10T14:41:04;13.50;97.60
25468;DHT22;13384;24.794;110.498;2022-12-10T14:43:38;13.50;97.60
25468;DHT22;13384;24.794;110.498;2022-12-10T14:46:17;13.50;97.60
25468;DHT22;13384;24.794;110.498;2022-12-10T14:49:31;13.40;97.60
25468;DHT22;13384;24.794;110.498;2022-12-10T14:52:21;13.50;97.60
25468;DHT22;13384;24.794;110.498;2022-12-10T14:54:56;13.50;97.60
25468;DHT22;13384;24.794;110.498;2022-12-10T14:57:35;13.40;97.50
25468;DHT22;13384;24.794;110.498;2022-12-10T15:00:17;13.40;97.60
25468;DHT22;13384;24.794;110.498;2022-12-10T15:03:07;13.40;97.80
25468;DHT22;13384;24.794;110.498;2022-12-10T15:05:59;13.40;97.60
25468;DHT22;13384;24.794;110.498;2022-12-10T15:08:55;13.40;97.60
25468;DHT22;13384;24.794;110.498;2022-12-10T15:11:29;13.40;97.60
25468;DHT22;13384;24.794;110.498;2022-12-10T15:14:02;13.40;97.60
25468;DHT22;13384;24.794;110.498;2022-12-10T15:16:42;13.40;97.60
25468;DHT22;13384;24.794;110.498;2022-12-10T15:19:50;13.40;97.60
25468;DHT22;13384;24.794;110.498;2022-12-10T15:22:24;13.40;97.60
25468;DHT22;13384;24.794;110.498;2022-12-10T15:25:21;13.40;97.60
25468;DHT22;13384;24.794;110.498;2022-12-10T15:28:20;13.40;97.60
25468;DHT22;13384;24.794;110.498;2022-12-10T15:30:54;13.40;97.60
25468;DHT22;13384;24.794;110.498;2022-12-10T15:33:48;13.40;97.60
25468;DHT22;13384;24.794;110.498;2022-12-10T15:36:53;13.40;97.60
25468;DHT22;13384;24.794;110.498;2022-12-10T15:39:59;13.40;97.50
25468;DHT22;13384;24.794;110.498;2022-12-10T15:42:44;13.40;97.60
25468;DHT22;13384;24.794;110.498;2022-12-10T15:45:37;13.40;97.60
25468;DHT22;13384;24.794;110.498;2022-12-10T15:48:26;13.40;97.60
25468;DHT22;13384;24.794;110.498;2022-12-10T15:51:13;13.40;97.60
25468;DHT22;13384;24.794;110.498;2022-12-10T15:54:31;13.40;97.60
25468;DHT22;13384;24.794;110.498;2022-12-10T15:59:51;13.40;97.60
25468;DHT22;13384;24.794;110.498;2022-12-10T16:05:28;13.40;97.60
25468;DHT22;13384;24.794;110.498;2022-12-10T16:08:18;13.40;97.60
25468;DHT22;13384;24.794;110.498;2022-12-10T16:11:15;13.40;97.60
25468;DHT22;13384;24.794;110.498;2022-12-10T16:13:51;13.30;97.60
25468;DHT22;13384;24.794;110.498;2022-12-10T16:16:43;13.40;97.60
25468;DHT22;13384;24.794;110.498;2022-12-10T16:19:26;13.40;97.60
25468;DHT22;13384;24.794;110.498;2022-12-10T16:22:10;13.30;97.60
25468;DHT22;13384;24.794;110.498;2022-12-10T16:25:09;13.40;97.60
25468;DHT22;13384;24.794;110.498;2022-12-10T16:27:52;13.30;97.60
25468;DHT22;13384;24.794;110.498;2022-12-10T16:30:41;13.30;97.60
25468;DHT22;13384;24.794;110.498;2022-12-10T16:33:16;13.30;97.60
25468;DHT22;13384;24.794;110.498;2022-12-10T16:35:51;13.30;97.60
25468;DHT22;13384;24.794;110.498;2022-12-10T16:38:40;13.30;97.60
25468;DHT22;13384;24.794;110.498;2022-12-10T16:41:23;13.30;97.50
25468;DHT22;13384;24.794;110.498;2022-12-10T16:45:16;13.30;97.60
25468;DHT22;13384;24.794;110.498;2022-12-10T16:47:44;13.30;97.60
25468;DHT22;13384;24.794;110.498;2022-12-10T16:50:28;13.30;97.60
25468;DHT22;13384;24.794;110.498;2022-12-10T16:53:16;13.30;97.60
25468;DHT22;13384;24.794;110.498;2022-12-10T16:56:04;13.30;97.60
25468;DHT22;13384;24.794;110.498;2022-12-10T16:58:48;13.30;97.60
25468;DHT22;13384;24.794;110.498;2022-12-10T17:01:31;13.30;97.50
25468;DHT22;13384;24.794;110.498;2022-12-10T17:04:14;13.30;97.50
25468;DHT22;13384;24.794;110.498;2022-12-10T17:06:58;13.30;97.50
25468;DHT22;13384;24.794;110.498;2022-12-10T17:09:41;13.30;97.50
25468;DHT22;13384;24.794;110.498;2022-12-10T17:12:50;13.30;97.50
25468;DHT22;13384;24.794;110.498;2022-12-10T17:15:21;13.30;97.50
25468;DHT22;13384;24.794;110.498;2022-12-10T17:17:54;13.30;97.40
25468;DHT22;13384;24.794;110.498;2022-12-10T17:20:25;13.30;97.50
25468;DHT22;13384;24.794;110.498;2022-12-10T17:23:17;13.30;97.50
25468;DHT22;13384;24.794;110.498;2022-12-10T17:25:52;13.30;97.50
25468;DHT22;13384;24.794;110.498;2022-12-10T17:28:22;13.30;97.50
25468;DHT22;13384;24.794;110.498;2022-12-10T17:31:48;13.30;97.50
25468;DHT22;13384;24.794;110.498;2022-12-10T17:34:26;13.30;97.50
25468;DHT22;13384;24.794;110.498;2022-12-10T17:37:14;13.30;97.50
25468;DHT22;13384;24.794;110.498;2022-12-10T17:39:46;13.30;97.50
25468;DHT22;13384;24.794;110.498;2022-12-10T17:42:16;13.30;97.50
25468;DHT22;13384;24.794;110.498;2022-12-10T17:44:46;13.30;97.50
25468;DHT22;13384;24.794;110.498;2022-12-10T17:47:24;13.30;97.40
25468;DHT22;13384;24.794;110.498;2022-12-10T17:49:56;13.30;97.50
25468;DHT22;13384;24.794;110.498;2022-12-10T17:52:45;13.30;97.50
25468;DHT22;13384;24.794;110.498;2022-12-10T17:55:30;13.30;97.40
25468;DHT22;13384;24.794;110.498;2022-12-10T17:58:05;13.40;97.40
25468;DHT22;13384;24.794;110.498;2022-12-10T18:00:38;13.40;97.40
25468;DHT22;13384;24.794;110.498;2022-12-10T18:03:09;13.40;97.40
25468;DHT22;13384;24.794;110.498;2022-12-10T18:05:40;13.40;97.40
25468;DHT22;13384;24.794;110.498;2022-12-10T18:08:23;13.30;97.40
25468;DHT22;13384;24.794;110.498;2022-12-10T18:10:54;13.40;97.40
25468;DHT22;13384;24.794;110.498;2022-12-10T18:13:27;13.40;97.40
25468;DHT22;13384;24.794;110.498;2022-12-10T18:15:58;13.40;97.40
25468;DHT22;13384;24.794;110.498;2022-12-10T18:18:31;13.40;97.50
25468;DHT22;13384;24.794;110.498;2022-12-10T18:21:06;13.30;97.40
25468;DHT22;13384;24.794;110.498;2022-12-10T18:23:52;13.30;97.40
25468;DHT22;13384;24.794;110.498;2022-12-10T18:26:24;13.40;97.50
25468;DHT22;13384;24.794;110.498;2022-12-10T18:28:57;13.40;97.50